Terminal Aerodrome Forecast
Issued by NWS Springfield, MO

Home | Current Version | Previous Version | Text Only | Print | Product List | Glossary On
Versions: 1 2 3 4 5 6 7 8 9 10 11 12 13 14 15 16 17 18 19 20 21 22 23 24 25 26 27 28 29 30 31 32
118
FTUS43 KSGF 241724
TAFSGF
TAF
KSGF 241724Z 2418/2518 17019G28KT P6SM VCTS OVC060CB
     FM242100 17014G22KT P6SM SHRA OVC015
      TEMPO 2421/2424 2SM TSRA OVC010CB
     FM250000 15013KT 3SM SHRA VCTS OVC015CB
     FM250400 16010KT P6SM SHRA VCTS OVC035CB
     FM250600 16009KT P6SM VCSH OVC040
     FM251200 16006KT 4SM -SHRA BKN015
     FM251400 21006KT 4SM -SHRA OVC030=

USA.gov is the U.S. government's official web portal to all federal, state and local government web resources and services.